Time;durP1;ratioP1;P1;durP2;ratioP2;P2;SDS_P1;SDS_P2;PMS_P1;PMS_P2;Temp;Humidity;BMP_temperature;BMP_pressure;BME280_temperature;BME280_humidity;BME280_pressure;Samples;Min_cycle;Max_cycle;Signal;HPM_P1;HPM_P2
2024/02/15 00:00:43;;;;;;;;;16.17;14.67;;;;;13.26;77.79;101701.47;2045290;28;1821116;-85
2024/02/15 00:01:53;;;;;;;;;13.50;10.00;;;;;13.24;77.51;101697.16;1990970;28;2788802;-84
2024/02/15 00:03:07;;;;;;;;;10.50;10.00;;;;;13.23;77.55;101698.97;2027636;28;2779958;-85
2024/02/15 00:04:19;;;;;;;;;10.50;9.00;;;;;13.21;77.54;101700.75;1993741;28;2766920;-84
2024/02/15 00:05:30;;;;;;;;;9.33;8.00;;;;;13.21;77.65;101705.19;2015235;28;3471046;-84
2024/02/15 00:06:41;;;;;;;;;11.20;10.40;;;;;13.18;77.73;101692.94;2044758;28;1821139;-85
2024/02/15 00:07:52;;;;;;;;;14.00;12.00;;;;;13.18;78.00;101692.06;2021444;28;2800259;-84
2024/02/15 00:09:03;;;;;;;;;10.00;10.00;;;;;13.16;77.92;101694.75;2006621;28;2785633;-85
2024/02/15 00:10:14;;;;;;;;;8.00;7.00;;;;;13.15;77.30;101698.31;2021392;28;2734673;-85
2024/02/15 00:11:25;;;;;;;;;8.67;7.67;;;;;13.12;77.60;101696.59;2016761;28;2741977;-85
2024/02/15 00:12:36;;;;;;;;;9.33;8.67;;;;;13.11;77.95;101694.03;2046079;28;1827354;-85
2024/02/15 00:13:47;;;;;;;;;11.00;9.00;;;;;13.08;77.55;101688.81;1994383;28;2766959;-84
2024/02/15 00:14:59;;;;;;;;;10.00;9.80;;;;;13.07;77.81;101687.09;2047727;28;1821170;-84
2024/02/15 00:16:14;;;;;;;;;11.25;9.25;;;;;13.04;77.80;101686.25;2031325;28;1827394;-85
2024/02/15 00:17:25;;;;;;;;;10.00;10.00;;;;;13.01;77.54;101675.78;2015833;28;3478400;-84
2024/02/15 00:18:36;;;;;;;;;14.00;10.50;;;;;13.00;77.90;101679.34;2024904;28;2786778;-85
2024/02/15 00:19:47;;;;;;;;;7.33;6.33;;;;;12.99;77.56;101684.69;2018471;28;2752392;-85
2024/02/15 00:20:59;;;;;;;;;9.75;9.50;;;;;12.98;77.76;101686.44;2031249;28;1841946;-84
2024/02/15 00:22:10;;;;;;;;;11.00;9.50;;;;;12.96;78.00;101680.34;2008284;28;2777889;-84
2024/02/15 00:23:21;;;;;;;;;9.00;8.00;;;;;12.94;77.70;101676.88;2031752;28;2741955;-85
2024/02/15 00:24:32;;;;;;;;;9.50;9.50;;;;;12.94;77.55;101676.88;2022407;28;2755549;-85
2024/02/15 00:25:44;;;;;;;;;9.67;7.67;;;;;12.90;77.93;101673.47;2024260;28;3470091;-85
2024/02/15 00:26:57;;;;;;;;;10.83;9.50;;;;;12.90;77.66;101681.38;2047745;28;1821168;-84
2024/02/15 00:28:08;;;;;;;;;9.00;8.00;;;;;12.89;77.95;101676.16;1993566;28;2737781;-84
2024/02/15 00:29:19;;;;;;;;;11.00;11.00;;;;;12.88;78.20;101674.41;2033318;28;2777354;-85
2024/02/15 00:30:31;;;;;;;;;8.25;8.25;;;;;12.87;78.18;101675.31;2048213;28;1837874;-84
2024/02/15 00:31:42;;;;;;;;;9.25;8.75;;;;;12.85;77.90;101675.38;2029065;28;1816017;-85
2024/02/15 00:32:53;;;;;;;;;7.33;6.00;;;;;12.84;77.93;101670.97;2014325;28;3456432;-85
2024/02/15 00:34:05;;;;;;;;;11.00;10.00;;;;;12.82;78.12;101671.03;2022573;28;2784629;-85
2024/02/15 00:35:18;;;;;;;;;7.67;7.67;;;;;12.82;78.14;101671.03;2050898;28;2738839;-84
2024/02/15 00:36:29;;;;;;;;;13.00;11.00;;;;;12.80;77.85;101670.22;1998304;28;2791953;-85
2024/02/15 00:37:41;;;;;;;;;8.50;8.00;;;;;12.79;78.13;101672.91;2026790;28;1829492;-84
2024/02/15 00:38:52;;;;;;;;;8.75;8.50;;;;;12.77;78.05;101670.28;2024182;28;1819104;-85
2024/02/15 00:40:03;;;;;;;;;7.33;7.33;;;;;12.77;78.11;101672.06;2008303;28;3459639;-84
2024/02/15 00:41:17;;;;;;;;;7.17;7.17;;;;;12.73;78.24;101665.16;2043600;28;2735664;-84
2024/02/15 00:42:30;;;;;;;;;9.50;8.25;;;;;12.73;78.25;101670.41;2002320;28;1837326;-85
2024/02/15 00:43:41;;;;;;;;;7.67;6.33;;;;;12.71;78.04;101671.34;2012819;28;2738817;-85
2024/02/15 00:44:52;;;;;;;;;10.00;10.00;;;;;12.69;78.03;101665.22;2026740;28;2782582;-85
2024/02/15 00:46:03;;;;;;;;;11.00;11.00;;;;;12.69;78.08;101664.38;2025004;28;2786725;-85
2024/02/15 00:47:15;;;;;;;;;14.80;12.80;;;;;12.67;78.11;101667.03;2013519;28;1823741;-85
2024/02/15 00:48:28;;;;;;;;;10.50;9.50;;;;;12.66;78.63;101669.72;1985258;28;2781530;-85
2024/02/15 00:49:38;;;;;;;;;14.50;10.00;;;;;12.65;78.29;101662.72;1993199;28;2785660;-84
2024/02/15 00:50:49;;;;;;;;;10.00;10.00;;;;;12.63;78.46;101665.41;2007414;28;2778385;-84
2024/02/15 00:52:00;;;;;;;;;13.00;10.50;;;;;12.62;78.25;101657.53;2032009;28;2791886;-84
2024/02/15 00:53:11;;;;;;;;;14.00;12.50;;;;;12.60;78.26;101660.19;2037249;28;2789843;-84
2024/02/15 00:54:22;;;;;;;;;13.25;10.50;;;;;12.59;78.13;101659.31;2045342;28;2779425;-85
2024/02/15 00:55:33;;;;;;;;;13.00;9.50;;;;;12.58;78.50;101662.88;2000534;28;2779756;-84
2024/02/15 00:56:44;;;;;;;;;13.00;10.33;;;;;12.55;78.45;101657.69;2029660;28;3510657;-84
2024/02/15 00:57:55;;;;;;;;;13.00;9.50;;;;;12.57;78.35;101660.28;2030136;28;2775284;-85
2024/02/15 00:59:06;;;;;;;;;9.00;7.50;;;;;12.55;77.89;101657.69;2030870;28;2737734;-84
2024/02/15 01:00:17;;;;;;;;;9.33;8.33;;;;;12.54;78.65;101655.97;2032211;28;3450637;-84
2024/02/15 01:01:28;;;;;;;;;7.33;7.33;;;;;12.53;78.47;101656.88;2043985;28;1823241;-84
2024/02/15 01:02:39;;;;;;;;;10.00;8.00;;;;;12.52;78.68;101649.84;2001364;28;2756495;-84
2024/02/15 01:03:50;;;;;;;;;10.67;8.33;;;;;12.52;78.57;101654.28;2021208;28;3468991;-84
2024/02/15 01:05:01;;;;;;;;;11.00;9.00;;;;;12.51;78.49;101656.06;2030976;28;2764851;-84
2024/02/15 01:06:12;;;;;;;;;7.25;7.25;;;;;12.50;78.83;101649.03;2039103;28;1830617;-84
2024/02/15 01:07:26;;;;;;;;;13.67;10.67;;;;;12.49;78.42;101649.94;2026115;28;1839872;-84
2024/02/15 01:08:36;;;;;;;;;10.00;8.00;;;;;12.49;78.67;101636.78;1993387;28;2761739;-84
2024/02/15 01:09:47;;;;;;;;;9.00;7.50;;;;;12.48;78.89;101635.91;2032014;28;2735727;-84
2024/02/15 01:10:59;;;;;;;;;10.00;9.25;;;;;12.47;78.65;101641.22;2043457;28;1823206;-85
2024/02/15 01:12:10;;;;;;;;;11.25;7.75;;;;;12.46;78.67;101642.13;2027390;28;1825317;-84
2024/02/15 01:13:21;;;;;;;;;8.50;8.00;;;;;12.46;78.71;101634.22;2009784;28;2747100;-85
2024/02/15 01:14:32;;;;;;;;;10.00;7.50;;;;;12.44;79.10;101634.25;2033893;28;2755486;-84
2024/02/15 01:15:43;;;;;;;;;9.00;9.00;;;;;12.44;78.69;101636.91;2031298;28;2737722;-85
2024/02/15 01:16:54;;;;;;;;;8.00;8.00;;;;;12.42;78.78;101629.94;2047060;28;1821180;-84
2024/02/15 01:18:04;;;;;;;;;11.50;10.00;;;;;12.41;78.82;101629.06;1999617;28;2787776;-85
2024/02/15 01:19:15;;;;;;;;;6.50;6.50;;;;;12.43;78.84;101636.91;2004113;28;2740879;-84
2024/02/15 01:20:26;;;;;;;;;9.50;9.00;;;;;12.40;78.95;101631.72;2031735;28;2748213;-84
2024/02/15 01:21:37;;;;;;;;;7.00;6.00;;;;;12.39;78.76;101628.25;2025671;28;2740878;-84
2024/02/15 01:22:48;;;;;;;;;9.50;9.50;;;;;12.40;78.84;101635.22;2031251;28;2762801;-85
2024/02/15 01:24:00;;;;;;;;;9.33;9.00;;;;;12.40;79.08;101631.72;2039838;28;3477331;-84
2024/02/15 01:25:11;;;;;;;;;11.00;9.50;;;;;12.39;78.83;101625.59;2014196;28;2777811;-84
2024/02/15 01:26:23;;;;;;;;;10.40;9.60;;;;;12.36;78.77;101629.19;2020627;28;1818995;-85
2024/02/15 01:27:34;;;;;;;;;11.75;9.25;;;;;12.37;78.83;101623.00;2020305;28;1836736;-85
2024/02/15 01:28:45;;;;;;;;;10.00;10.00;;;;;12.36;79.13;101620.41;2013905;28;2780760;-85
2024/02/15 01:29:56;;;;;;;;;8.00;7.67;;;;;12.37;78.98;101622.16;2026182;28;1828379;-85
2024/02/15 01:31:07;;;;;;;;;9.33;7.33;;;;;12.36;79.23;101626.53;1994733;28;2738922;-84
2024/02/15 01:32:18;;;;;;;;;9.00;8.00;;;;;12.36;79.06;101621.28;2017334;28;3456537;-85
2024/02/15 01:33:29;;;;;;;;;7.33;6.67;;;;;12.36;79.20;101617.75;2042972;28;2741978;-85
2024/02/15 01:34:40;;;;;;;;;9.00;8.00;;;;;12.37;79.07;101625.63;2009294;28;1815365;-85
2024/02/15 01:35:50;;;;;;;;;6.67;6.67;;;;;12.36;79.27;101623.03;1988595;28;2743049;-85
2024/02/15 01:37:01;;;;;;;;;7.33;7.00;;;;;12.37;79.07;101625.63;2027466;28;2748306;-84
2024/02/15 01:38:12;;;;;;;;;8.00;7.00;;;;;12.37;79.13;101622.16;2028824;28;3439809;-84
2024/02/15 01:39:23;;;;;;;;;8.67;7.00;;;;;12.37;79.13;101625.63;2026422;28;3462198;-85
2024/02/15 01:40:35;;;;;;;;;8.00;6.33;;;;;12.36;79.05;101620.41;2022760;28;2750320;-85
2024/02/15 01:41:50;;;;;;;;;9.50;7.50;;;;;12.36;79.38;101626.53;2037493;28;2744021;-85
2024/02/15 01:43:01;;;;;;;;;9.67;7.67;;;;;12.37;79.10;101622.16;1986692;28;3471100;-84
2024/02/15 01:44:13;;;;;;;;;9.00;9.00;;;;;12.38;79.11;101624.72;2036391;28;1815920;-85
2024/02/15 01:45:25;;;;;;;;;8.00;7.00;;;;;12.38;79.24;101623.84;2024893;28;1831541;-85
2024/02/15 01:46:35;;;;;;;;;9.33;8.00;;;;;12.37;79.35;101630.91;1988899;28;2748257;-85
2024/02/15 01:47:46;;;;;;;;;6.67;6.67;;;;;12.38;79.24;101623.84;2027094;28;2739960;-85
2024/02/15 01:48:57;;;;;;;;;7.00;7.00;;;;;12.38;79.56;101632.63;2019757;28;2746141;-85
2024/02/15 01:50:14;;;;;;;;;6.80;6.80;;;;;12.38;79.10;101629.13;2042147;28;1816956;-85
2024/02/15 01:51:27;;;;;;;;;6.83;6.83;;;;;12.37;79.21;101625.63;2037371;28;2735703;-85
2024/02/15 01:52:39;;;;;;;;;6.33;6.33;;;;;12.37;79.49;101630.06;1993298;28;2745139;-85
2024/02/15 01:53:49;;;;;;;;;8.00;7.00;;;;;12.37;79.10;101630.91;2017439;28;2730461;-85
2024/02/15 01:55:08;;;;;;;;;7.33;7.00;;;;;12.36;79.19;101634.47;2031787;28;2748147;-84
2024/02/15 01:56:20;;;;;;;;;11.00;7.33;;;;;12.35;79.14;101630.06;2017760;28;2754545;-85
2024/02/15 01:57:30;;;;;;;;;7.00;7.00;;;;;12.35;79.40;101629.19;2016598;28;2747132;-85
2024/02/15 01:58:42;;;;;;;;;11.33;8.67;;;;;12.35;79.13;101630.06;2034825;28;3477394;-84
2024/02/15 01:59:53;;;;;;;;;8.00;6.00;;;;;12.34;79.09;101627.50;2017457;28;2742961;-85
2024/02/15 02:01:05;;;;;;;;;9.00;7.50;;;;;12.35;79.42;101626.56;2043836;28;2735770;-84
2024/02/15 02:02:20;;;;;;;;;6.33;5.33;;;;;12.35;78.96;101624.81;2010114;28;2748236;-84
2024/02/15 02:03:30;;;;;;;;;7.67;5.00;;;;;12.32;79.13;101619.59;2018682;28;2746202;-84
2024/02/15 02:04:42;;;;;;;;;6.67;6.00;;;;;12.33;79.28;101615.19;2031638;28;2742992;-85
2024/02/15 02:05:52;;;;;;;;;5.00;4.00;;;;;12.33;78.86;101613.44;2017580;28;2754505;-85
2024/02/15 02:07:04;;;;;;;;;5.67;5.00;;;;;12.32;79.23;101619.59;2024325;28;2750370;-84
2024/02/15 02:08:15;;;;;;;;;8.33;4.33;;;;;12.33;79.29;101613.44;2020071;28;2755480;-85
2024/02/15 02:09:26;;;;;;;;;5.00;5.00;;;;;12.32;79.25;101614.34;2015938;28;2752363;-84
2024/02/15 02:10:37;;;;;;;;;8.33;5.67;;;;;12.32;79.26;101616.97;2020590;28;2751436;-84
2024/02/15 02:11:50;;;;;;;;;5.00;5.00;;;;;12.32;79.19;101609.06;2018981;28;2754430;-85
2024/02/15 02:13:04;;;;;;;;;5.33;4.17;;;;;12.31;78.79;101607.34;2036760;28;2740910;-84
2024/02/15 02:14:14;;;;;;;;;5.00;3.67;;;;;12.31;78.97;101602.06;1988272;28;2748261;-84
2024/02/15 02:15:25;;;;;;;;;4.33;4.33;;;;;12.31;79.10;101606.47;2023919;28;2748194;-85
2024/02/15 02:16:39;;;;;;;;;7.00;3.75;;;;;12.30;79.32;101604.75;2044330;28;2752355;-84
2024/02/15 02:17:52;;;;;;;;;7.00;4.33;;;;;12.30;78.99;101605.59;2011276;28;2754533;-84
2024/02/15 02:19:07;;;;;;;;;4.33;4.00;;;;;12.30;78.75;101602.97;2015631;28;2752411;-84
2024/02/15 02:20:21;;;;;;;;;7.33;4.83;;;;;12.30;78.59;101597.69;2043493;28;2742994;-84
2024/02/15 02:21:34;;;;;;;;;5.33;4.00;;;;;12.27;78.57;101597.78;1993576;28;2754831;-84
2024/02/15 02:22:48;;;;;;;;;4.00;2.67;;;;;12.26;78.75;101594.28;2013960;28;3465881;-85
2024/02/15 02:24:00;;;;;;;;;5.67;4.67;;;;;12.27;78.84;101601.28;2011460;28;2752368;-84
2024/02/15 02:25:14;;;;;;;;;3.00;3.00;;;;;12.26;78.71;101593.41;2042800;28;2746108;-85
2024/02/15 02:26:28;;;;;;;;;3.50;3.00;;;;;12.26;78.90;101596.06;2014040;28;2750296;-84
2024/02/15 02:27:38;;;;;;;;;7.00;4.00;;;;;12.23;78.73;101583.81;1987263;28;2755035;-84
2024/02/15 02:28:54;;;;;;;;;3.60;3.60;;;;;12.23;78.42;101588.22;2035955;28;2744090;-85
2024/02/15 02:30:14;;;;;;;;;6.00;4.33;;;;;12.22;78.71;101587.34;2018129;28;2738881;-85
2024/02/15 02:31:28;;;;;;;;;3.17;3.17;;;;;12.21;78.88;101590.03;2041399;28;2735666;-84
2024/02/15 02:32:38;;;;;;;;;5.00;5.00;;;;;12.19;78.75;101578.66;1994621;28;2754510;-84
2024/02/15 02:33:53;;;;;;;;;4.33;4.33;;;;;12.18;78.68;101583.06;2051769;28;2748229;-85
2024/02/15 02:35:03;;;;;;;;;5.33;5.33;;;;;12.18;78.36;101584.84;2001005;28;3467944;-85
2024/02/15 02:36:16;;;;;;;;;6.00;6.00;;;;;12.15;78.38;101588.41;2039204;28;2745070;-84
2024/02/15 02:37:28;;;;;;;;;6.67;4.67;;;;;12.14;78.67;101578.78;2002627;28;1819086;-85
2024/02/15 02:38:41;;;;;;;;;6.17;4.17;;;;;12.12;78.88;101577.94;2014749;28;2750304;-85
2024/02/15 02:39:51;;;;;;;;;4.00;4.00;;;;;12.10;78.75;101567.44;1982678;28;3462736;-85
2024/02/15 02:41:02;;;;;;;;;7.00;4.00;;;;;12.11;78.58;101578.84;2030605;28;2741931;-84
2024/02/15 02:42:15;;;;;;;;;4.20;4.20;;;;;12.08;78.56;101571.88;2044238;28;2752355;-84
2024/02/15 02:43:25;;;;;;;;;4.00;4.00;;;;;12.07;78.78;101571.94;2011049;28;2754524;-84
2024/02/15 02:44:36;;;;;;;;;4.00;4.00;;;;;12.04;78.56;101563.19;2036232;28;2733630;-84
2024/02/15 02:45:47;;;;;;;;;7.33;7.33;;;;;12.03;78.65;101568.50;2017425;28;2750264;-84
2024/02/15 02:46:58;;;;;;;;;6.00;5.67;;;;;12.02;78.39;101559.75;2024906;28;2747223;-84
2024/02/15 02:48:09;;;;;;;;;7.00;5.00;;;;;12.01;78.59;101562.41;2014973;28;2754521;-85
2024/02/15 02:49:20;;;;;;;;;6.33;6.33;;;;;11.98;78.11;101557.19;2039729;28;2736166;-84
2024/02/15 02:50:31;;;;;;;;;7.00;6.33;;;;;11.97;78.34;101558.13;2013803;28;2749287;-84
2024/02/15 02:51:42;;;;;;;;;6.00;6.00;;;;;11.95;78.54;101557.31;2009764;28;2750329;-84
2024/02/15 02:52:53;;;;;;;;;7.33;5.00;;;;;11.93;78.66;101552.06;2022228;28;3462736;-84
2024/02/15 02:54:06;;;;;;;;;7.67;7.00;;;;;11.92;78.34;101559.13;2026256;28;2746106;-85
2024/02/15 02:55:17;;;;;;;;;8.00;6.00;;;;;11.89;78.27;101553.03;2031498;28;1839882;-85
2024/02/15 02:56:27;;;;;;;;;6.67;6.67;;;;;11.87;78.11;101545.19;1989536;28;2743449;-84
2024/02/15 02:57:38;;;;;;;;;7.00;7.00;;;;;11.86;78.34;101548.72;2032516;28;3467960;-85
2024/02/15 02:58:50;;;;;;;;;7.00;7.00;;;;;11.85;78.37;101546.13;2042227;28;2745073;-85
2024/02/15 03:00:07;;;;;;;;;13.00;8.50;;;;;11.83;78.43;101546.16;2031452;28;1837820;-85
2024/02/15 03:01:19;;;;;;;;;13.25;8.75;;;;;11.82;78.25;101544.44;2029261;28;1830526;-85
2024/02/15 03:02:29;;;;;;;;;9.00;8.33;;;;;11.80;78.36;101551.53;2023764;28;1831534;-84
2024/02/15 03:03:40;;;;;;;;;7.33;6.33;;;;;11.78;78.11;101546.28;2008466;28;2750376;-85
2024/02/15 03:04:53;;;;;;;;;4.25;3.75;;;;;11.74;78.51;101539.38;2037770;27;2733597;-84
2024/02/15 03:06:06;;;;;;;;;8.33;8.33;;;;;11.74;78.75;101549.91;2037825;28;2744010;-84
2024/02/15 03:07:18;;;;;;;;;9.33;7.33;;;;;11.72;78.55;101550.84;1994435;28;3462805;-85
2024/02/15 03:08:31;;;;;;;;;8.67;8.67;;;;;11.70;78.41;101549.09;2044446;28;2747165;-84
2024/02/15 03:09:42;;;;;;;;;8.50;8.50;;;;;11.68;78.25;101540.38;1993244;28;2750256;-84
2024/02/15 03:10:53;;;;;;;;;7.33;7.00;;;;;11.68;78.41;101547.44;2033114;28;3461690;-85
2024/02/15 03:12:04;;;;;;;;;3.25;3.00;;;;;11.65;78.54;101539.59;2036553;28;2746091;-84
2024/02/15 03:13:15;;;;;;;;;6.00;5.00;;;;;11.65;78.50;101543.09;2011314;28;3465857;-84
2024/02/15 03:14:26;;;;;;;;;4.33;4.33;;;;;11.63;78.56;101541.41;2044050;28;2741919;-84
2024/02/15 03:15:36;;;;;;;;;7.00;7.00;;;;;11.63;78.52;101542.25;1999320;28;2752437;-84
2024/02/15 03:16:47;;;;;;;;;10.67;9.00;;;;;11.60;78.78;101542.34;2040686;28;1835698;-85
2024/02/15 03:17:58;;;;;;;;;8.67;7.00;;;;;11.59;78.60;101537.97;1987629;28;2748213;-84
2024/02/15 03:19:11;;;;;;;;;8.67;7.67;;;;;11.57;78.49;101534.50;2030942;28;3453358;-84
2024/02/15 03:20:23;;;;;;;;;11.00;7.00;;;;;11.55;78.86;101544.22;2016920;28;3481487;-84
2024/02/15 03:21:34;;;;;;;;;8.33;8.33;;;;;11.55;78.42;101538.94;2015323;28;3449187;-85
2024/02/15 03:22:45;;;;;;;;;11.33;8.00;;;;;11.52;78.50;101536.38;2030553;28;2752428;-85
2024/02/15 03:23:56;;;;;;;;;8.00;8.00;;;;;11.51;78.53;101537.31;2035034;28;2728419;-85
2024/02/15 03:25:07;;;;;;;;;12.00;7.67;;;;;11.49;78.32;101537.31;1995049;28;2749355;-85
2024/02/15 03:26:36;;;;;;;;;8.17;7.83;;;;;11.48;78.67;101531.19;2036862;28;2735729;-85
2024/02/15 03:27:47;;;;;;;;;9.33;8.33;;;;;11.45;78.82;101528.66;2013277;28;3456505;-84
2024/02/15 03:28:58;;;;;;;;;8.67;7.00;;;;;11.45;78.77;101525.16;2044242;28;2743012;-84
2024/02/15 03:30:11;;;;;;;;;6.83;6.83;;;;;11.43;78.82;101533.06;2027603;28;2732066;-84
2024/02/15 03:31:25;;;;;;;;;8.00;7.33;;;;;11.43;78.67;101530.44;2043574;28;2745050;-84
2024/02/15 03:32:38;;;;;;;;;7.33;7.33;;;;;11.43;78.95;101529.59;2020792;28;2731537;-84
2024/02/15 03:33:49;;;;;;;;;9.67;9.00;;;;;11.42;78.58;101528.72;2015825;28;2753774;-84
2024/02/15 03:35:00;;;;;;;;;9.67;7.00;;;;;11.40;78.78;101527.88;2015609;28;3458650;-84
2024/02/15 03:36:15;;;;;;;;;10.67;8.33;;;;;11.40;78.88;101520.00;2010989;28;2762888;-84
2024/02/15 03:37:27;;;;;;;;;8.33;8.33;;;;;11.40;78.98;101530.53;2017137;28;2744038;-84
2024/02/15 03:38:37;;;;;;;;;8.67;7.67;;;;;11.39;78.49;101528.78;2016238;28;2748174;-85
2024/02/15 03:39:48;;;;;;;;;11.67;8.67;;;;;11.38;78.78;101524.44;2034554;28;2756578;-84
2024/02/15 03:40:59;;;;;;;;;9.00;7.33;;;;;11.38;78.78;101527.06;2010172;28;2745144;-84
2024/02/15 03:42:12;;;;;;;;;6.83;6.17;;;;;11.36;78.81;101521.81;2044015;28;2745079;-84
2024/02/15 03:43:24;;;;;;;;;7.67;7.00;;;;;11.37;78.82;101520.06;1993678;28;2748175;-84
2024/02/15 03:44:34;;;;;;;;;7.00;7.00;;;;;11.35;79.15;101517.47;2010164;28;2746110;-84
2024/02/15 03:45:45;;;;;;;;;6.00;6.00;;;;;11.35;79.04;101516.59;2027784;28;2750257;-84
2024/02/15 03:46:59;;;;;;;;;7.75;7.25;;;;;11.34;79.02;101513.09;2039106;28;1814882;-85
2024/02/15 03:48:12;;;;;;;;;4.83;4.50;;;;;11.32;78.88;101509.66;2049506;28;2750267;-84
2024/02/15 03:49:22;;;;;;;;;8.00;8.00;;;;;11.34;78.72;101512.22;1995438;28;2740919;-84
2024/02/15 03:50:33;;;;;;;;;9.00;9.00;;;;;11.32;78.91;101507.00;2027335;28;2753740;-84
2024/02/15 03:51:44;;;;;;;;;9.67;9.67;;;;;11.33;79.17;101511.34;2025597;28;3486688;-84
2024/02/15 03:52:59;;;;;;;;;9.20;8.00;;;;;11.31;79.02;101507.06;2040123;28;2752344;-84
2024/02/15 03:54:12;;;;;;;;;8.67;7.00;;;;;11.31;79.00;101504.44;2004858;28;2750350;-84
2024/02/15 03:55:25;;;;;;;;;4.33;1.83;;;;;11.31;78.95;101507.06;2042707;28;2738812;-84
2024/02/15 03:56:37;;;;;;;;;6.67;6.67;;;;;11.31;78.91;101502.63;1994709;28;2749224;-84
2024/02/15 03:57:48;;;;;;;;;9.25;8.25;;;;;11.29;79.16;101500.94;2029676;28;1837775;-84
2024/02/15 03:58:59;;;;;;;;;8.00;8.00;;;;;11.30;78.96;101500.06;2031172;28;1812750;-84
2024/02/15 04:00:11;;;;;;;;;10.33;8.67;;;;;11.28;79.33;101501.84;2005906;28;2758620;-84
2024/02/15 04:01:21;;;;;;;;;4.67;3.00;;;;;11.27;79.07;101495.72;2018616;28;2754483;-84
2024/02/15 04:02:32;;;;;;;;;7.00;7.00;;;;;11.27;79.05;101487.84;2042476;28;2742962;-84
2024/02/15 04:03:47;;;;;;;;;8.83;7.50;;;;;11.27;79.05;101489.59;2043547;28;2742970;-85
2024/02/15 04:04:58;;;;;;;;;12.75;10.25;;;;;11.25;79.14;101484.38;2006222;28;1848235;-84
2024/02/15 04:06:09;;;;;;;;;9.00;7.00;;;;;11.25;79.19;101492.28;2020494;28;3471119;-84
2024/02/15 04:07:21;;;;;;;;;10.00;8.00;;;;;11.23;79.16;101486.19;2033259;28;2767050;-84
2024/02/15 04:08:38;;;;;;;;;7.00;6.83;;;;;11.22;79.01;101487.94;2038887;28;2729459;-85
2024/02/15 04:09:49;;;;;;;;;8.00;8.00;;;;;11.22;79.05;101495.84;2015761;28;2736755;-86
2024/02/15 04:11:00;;;;;;;;;9.33;9.33;;;;;11.21;79.06;101491.47;2027234;28;3470461;-85
2024/02/15 04:12:11;;;;;;;;;9.00;7.00;;;;;11.20;79.09;101487.13;2026940;28;2733723;-84
2024/02/15 04:13:22;;;;;;;;;9.00;8.33;;;;;11.19;79.05;101489.75;2016886;28;3456538;-84
2024/02/15 04:14:34;;;;;;;;;10.33;9.00;;;;;11.18;78.98;101488.94;2028920;28;3466891;-84
2024/02/15 04:15:46;;;;;;;;;12.33;9.67;;;;;11.18;79.11;101491.56;2010040;28;2770139;-84
2024/02/15 04:16:58;;;;;;;;;10.00;9.00;;;;;11.16;79.41;101485.44;2009693;28;3477721;-84
2024/02/15 04:18:10;;;;;;;;;8.00;7.00;;;;;11.16;79.18;101490.69;2016603;28;2747304;-84
2024/02/15 04:19:24;;;;;;;;;7.33;6.83;;;;;11.15;79.26;101481.09;2045212;28;2747136;-84
2024/02/15 04:20:34;;;;;;;;;12.00;8.33;;;;;11.16;79.05;101490.69;1991512;28;3474198;-84
2024/02/15 04:21:47;;;;;;;;;11.00;8.00;;;;;11.15;79.41;101483.72;2023133;28;2747184;-84
2024/02/15 04:23:00;;;;;;;;;1.67;0.00;;;;;11.13;79.27;101481.16;2042167;28;2703372;-84
2024/02/15 04:24:10;;;;;;;;;9.00;7.00;;;;;11.13;79.41;101485.53;2013972;28;3462755;-84
2024/02/15 04:25:27;;;;;;;;;8.33;8.00;;;;;11.13;79.27;101490.78;2041432;28;2738826;-84
2024/02/15 04:26:40;;;;;;;;;8.33;8.33;;;;;11.12;79.51;101492.56;2020167;28;2732595;-84
2024/02/15 04:27:51;;;;;;;;;11.33;8.67;;;;;11.12;79.35;101491.69;1992522;28;3465873;-84
2024/02/15 04:29:03;;;;;;;;;9.33;7.33;;;;;11.12;79.15;101494.31;2025161;28;3456507;-85
2024/02/15 04:30:15;;;;;;;;;8.67;8.67;;;;;11.11;79.34;101482.91;2017017;28;2741947;-85
2024/02/15 04:31:26;;;;;;;;;10.25;9.00;;;;;11.11;79.61;101496.06;2030231;28;1835750;-84
2024/02/15 04:32:40;;;;;;;;;9.17;8.83;;;;;11.11;79.51;101482.09;2043070;28;2728389;-85
2024/02/15 04:33:54;;;;;;;;;9.17;8.67;;;;;11.10;79.42;101494.38;2020956;28;2735718;-84
2024/02/15 04:35:07;;;;;;;;;8.00;8.00;;;;;11.10;79.46;101485.59;2021495;28;2726363;-84
2024/02/15 04:36:23;;;;;;;;;7.00;7.00;;;;;11.10;79.54;101486.47;2018734;28;2738849;-84
2024/02/15 04:37:34;;;;;;;;;8.00;8.00;;;;;11.09;79.71;101486.47;2011724;28;3456513;-84
2024/02/15 04:38:45;;;;;;;;;11.00;11.00;;;;;11.11;79.44;101487.34;2015155;28;2776318;-84
2024/02/15 04:39:56;;;;;;;;;13.67;8.00;;;;;11.09;79.47;101483.84;2032927;28;3481999;-85
2024/02/15 04:41:09;;;;;;;;;13.00;7.50;;;;;11.09;79.62;101483.84;2014764;28;2773172;-84
2024/02/15 04:42:20;;;;;;;;;9.33;8.67;;;;;11.11;79.70;101489.97;2016705;28;3459635;-84
2024/02/15 04:43:33;;;;;;;;;8.25;8.00;;;;;11.10;79.60;101481.22;2041136;28;2744131;-84
2024/02/15 04:44:44;;;;;;;;;10.33;7.33;;;;;11.10;79.50;101485.59;2017007;28;2759000;-85
2024/02/15 04:45:55;;;;;;;;;10.00;9.00;;;;;11.11;79.52;101482.09;2025522;28;2746164;-84
2024/02/15 04:47:06;;;;;;;;;9.00;7.00;;;;;11.09;79.64;101483.84;2025428;28;2753421;-84
2024/02/15 04:48:18;;;;;;;;;12.00;9.00;;;;;11.09;79.75;101473.31;2025143;28;2772257;-84
2024/02/15 04:49:29;;;;;;;;;12.67;11.00;;;;;11.09;79.30;101483.84;2023373;28;3510656;-85
2024/02/15 04:50:43;;;;;;;;;11.67;9.67;;;;;11.11;79.41;101474.19;2021264;28;3491924;-84
2024/02/15 04:51:54;;;;;;;;;9.25;9.25;;;;;11.11;79.72;101475.03;2022410;28;1837872;-84
2024/02/15 04:53:07;;;;;;;;;12.67;9.67;;;;;11.09;79.62;101468.06;2015805;28;3496100;-84
2024/02/15 04:54:18;;;;;;;;;9.67;9.00;;;;;11.10;79.55;101473.31;2014034;28;2770152;-84
2024/02/15 04:55:31;;;;;;;;;9.67;9.67;;;;;11.10;79.68;101475.06;2013067;28;2766058;-84
2024/02/15 04:56:42;;;;;;;;;8.00;8.00;;;;;11.10;79.56;101469.81;2025172;28;1821195;-84
2024/02/15 04:57:54;;;;;;;;;11.33;11.33;;;;;11.10;79.84;101464.56;2012585;28;3503432;-85
2024/02/15 04:59:08;;;;;;;;;12.00;12.00;;;;;11.11;79.64;101466.28;2029656;28;1846111;-86
2024/02/15 05:00:20;;;;;;;;;12.00;9.67;;;;;11.10;79.53;101468.06;1993387;28;3497173;-84
2024/02/15 05:01:34;;;;;;;;;8.33;7.83;;;;;11.09;79.57;101454.91;2042632;28;2742994;-84
2024/02/15 05:02:46;;;;;;;;;10.00;8.67;;;;;11.09;79.47;101462.81;1992592;28;3461683;-84
2024/02/15 05:03:57;;;;;;;;;12.50;7.75;;;;;11.10;79.63;101457.53;2026606;28;1827325;-84
2024/02/15 05:05:08;;;;;;;;;9.00;9.00;;;;;11.09;79.85;101454.91;2014109;28;3471081;-85
2024/02/15 05:06:20;;;;;;;;;7.00;7.00;;;;;11.09;79.69;101457.53;2036868;28;2742980;-85
2024/02/15 05:07:30;;;;;;;;;9.50;9.00;;;;;11.10;79.63;101454.91;1995681;28;2751326;-84
2024/02/15 05:08:44;;;;;;;;;14.00;10.67;;;;;11.10;79.51;101461.91;2033935;28;3500232;-85
2024/02/15 05:09:54;;;;;;;;;11.00;8.33;;;;;11.08;79.68;101454.06;2010195;28;3460749;-84
2024/02/15 05:11:07;;;;;;;;;10.67;9.33;;;;;11.09;79.53;101454.91;2025986;28;3477307;-84
2024/02/15 05:12:24;;;;;;;;;14.00;11.67;;;;;11.08;79.60;101445.31;2015795;28;3518360;-84
2024/02/15 05:13:34;;;;;;;;;9.50;9.00;;;;;11.07;79.48;101447.06;2013108;28;2755465;-84
2024/02/15 05:14:46;;;;;;;;;13.33;11.33;;;;;11.05;79.47;101446.25;2042299;28;1844120;-84
2024/02/15 05:15:56;;;;;;;;;9.00;9.00;;;;;11.06;79.69;101441.84;1991378;28;3455541;-84
2024/02/15 05:17:11;;;;;;;;;9.67;9.67;;;;;11.06;79.59;101445.34;2032867;28;3482523;-85
2024/02/15 05:18:21;;;;;;;;;14.67;10.00;;;;;11.05;79.50;101442.75;2014835;28;3503384;-84
2024/02/15 05:19:34;;;;;;;;;17.25;11.75;;;;;11.04;79.45;101444.50;2051107;28;1848208;-85
2024/02/15 05:20:45;;;;;;;;;11.67;9.33;;;;;11.02;79.54;101439.28;2016610;27;2768164;-84
2024/02/15 05:21:56;;;;;;;;;11.33;10.00;;;;;11.03;79.66;101438.41;2045938;28;1823203;-84
2024/02/15 05:23:06;;;;;;;;;11.00;10.00;;;;;11.02;79.53;101441.06;1993123;28;2775291;-84
2024/02/15 05:24:17;;;;;;;;;12.00;12.00;;;;;11.02;79.47;101441.06;2032386;28;2780473;-84
2024/02/15 05:25:29;;;;;;;;;9.67;9.67;;;;;11.02;79.64;101446.31;2025568;28;2754484;-84